Time;durP1;ratioP1;P1;durP2;ratioP2;P2;SDS_P1;SDS_P2;PMS_P1;PMS_P2;Temp;Humidity;BMP_temperature;BMP_pressure;BME280_temperature;BME280_humidity;BME280_pressure;Samples;Min_cycle;Max_cycle;Signal;HPM_P1;HPM_P2
2022/01/12 00:01:52;;;;;;;36.03;17.98;;;;;;;;;;5127667;27;20031;-54
2022/01/12 00:04:17;;;;;;;22.50;15.43;;;;;;;;;;5127410;27;20031;-54
2022/01/12 00:06:42;;;;;;;21.23;13.73;;;;;;;;;;5127298;27;20159;-52
2022/01/12 00:09:08;;;;;;;22.90;17.27;;;;;;;;;;5125882;27;20035;-55
2022/01/12 00:11:34;;;;;;;21.35;16.98;;;;;;;;;;5128034;27;20019;-54
2022/01/12 00:13:59;;;;;;;28.75;15.85;;;;;;;;;;5128226;27;20008;-54
2022/01/12 00:16:25;;;;;;;19.67;12.85;;;;;;;;;;5127373;27;20015;-55
2022/01/12 00:18:50;;;;;;;22.58;15.07;;;;;;;;;;5127757;27;20023;-56
2022/01/12 00:21:15;;;;;;;15.32;11.70;;;;;;;;;;5127320;27;20055;-54
2022/01/12 00:23:41;;;;;;;19.20;11.23;;;;;;;;;;5128888;27;20243;-52
2022/01/12 00:26:13;;;;;;;19.05;12.02;;;;;;;;;;5128519;27;20030;-54
2022/01/12 00:33:09;;;;;;;25.17;11.05;;;;;;;;;;5128069;27;20500;-56
2022/01/12 00:34:27;;;;;;;15.45;10.68;;;;;;;;;;5128110;27;20019;-54
2022/01/12 00:36:52;;;;;;;11.43;6.85;;;;;;;;;;5127260;27;20550;-55
2022/01/12 00:39:18;;;;;;;12.95;10.30;;;;;;;;;;5128076;27;20065;-53
2022/01/12 00:41:43;;;;;;;23.02;14.65;;;;;;;;;;5109068;27;20019;-55
2022/01/12 00:44:10;;;;;;;22.65;12.10;;;;;;;;;;5127714;27;20031;-55
2022/01/12 00:46:36;;;;;;;20.75;11.45;;;;;;;;;;5128041;27;20052;-55
2022/01/12 00:49:02;;;;;;;33.70;14.70;;;;;;;;;;5127212;27;20034;-55
2022/01/12 00:51:31;;;;;;;22.42;12.75;;;;;;;;;;5124811;27;20019;-55
2022/01/12 00:53:57;;;;;;;26.15;13.73;;;;;;;;;;5126307;27;20019;-54
2022/01/12 00:56:23;;;;;;;27.67;15.13;;;;;;;;;;5127758;27;20027;-54
2022/01/12 00:58:48;;;;;;;19.48;13.63;;;;;;;;;;5126584;27;20462;-55
2022/01/12 01:01:14;;;;;;;14.13;12.68;;;;;;;;;;5104437;27;20068;-53
2022/01/12 01:03:39;;;;;;;17.42;12.93;;;;;;;;;;5126943;27;20074;-54
2022/01/12 01:06:08;;;;;;;22.00;12.85;;;;;;;;;;5127826;27;20458;-53
2022/01/12 01:08:33;;;;;;;27.98;11.63;;;;;;;;;;5127844;27;20026;-54
2022/01/12 01:10:58;;;;;;;23.17;10.52;;;;;;;;;;5126908;27;20019;-53
2022/01/12 01:13:27;;;;;;;13.13;11.48;;;;;;;;;;5126739;27;20064;-55
2022/01/12 01:16:04;;;;;;;15.27;10.65;;;;;;;;;;5127000;27;20027;-54
2022/01/12 01:26:42;;;;;;;17.05;12.55;;;;;;;;;;5127157;27;20033;-55
2022/01/12 01:29:08;;;;;;;24.98;13.38;;;;;;;;;;5127526;27;20023;-51
2022/01/12 01:31:34;;;;;;;18.65;10.98;;;;;;;;;;5124849;27;20377;-55
2022/01/12 01:34:06;;;;;;;28.08;17.65;;;;;;;;;;5125700;27;20053;-55
2022/01/12 01:36:32;;;;;;;18.55;13.93;;;;;;;;;;5125107;27;20031;-53
2022/01/12 01:38:58;;;;;;;19.25;11.50;;;;;;;;;;5124279;27;20068;-55
2022/01/12 01:41:23;;;;;;;16.05;12.02;;;;;;;;;;5126388;27;20030;-55
2022/01/12 01:54:45;;;;;;;20.10;11.60;;;;;;;;;;5127043;28;20497;-56
2022/01/12 01:57:10;;;;;;;24.98;11.68;;;;;;;;;;5125985;28;20043;-54
2022/01/12 01:59:36;;;;;;;18.70;11.93;;;;;;;;;;5127519;28;20030;-55
2022/01/12 02:02:01;;;;;;;22.35;12.55;;;;;;;;;;5127127;28;20019;-56
2022/01/12 02:04:26;;;;;;;19.65;10.27;;;;;;;;;;5127567;28;20023;-55
2022/01/12 02:06:54;;;;;;;15.88;9.73;;;;;;;;;;5123828;28;20106;-56
2022/01/12 02:09:19;;;;;;;14.45;9.50;;;;;;;;;;5126716;27;20027;-55
2022/01/12 02:11:49;;;;;;;11.38;6.80;;;;;;;;;;5126696;28;20156;-55
2022/01/12 02:14:14;;;;;;;13.93;7.55;;;;;;;;;;5124927;28;20088;-56
2022/01/12 02:16:51;;;;;;;14.30;7.47;;;;;;;;;;5123715;28;20058;-55
2022/01/12 02:19:41;;;;;;;22.88;10.27;;;;;;;;;;5126567;28;20102;-55
2022/01/12 02:35:49;;;;;;;8.45;5.80;;;;;;;;;;5126090;28;20034;-53
2022/01/12 02:41:01;;;;;;;11.80;3.47;;;;;;;;;;5124956;28;20046;-56
2022/01/12 02:53:48;;;;;;;5.30;3.40;;;;;;;;;;5126651;28;20057;-55
2022/01/12 02:56:33;;;;;;;9.30;4.25;;;;;;;;;;5125877;27;20043;-52
2022/01/12 02:58:59;;;;;;;12.50;4.57;;;;;;;;;;5126454;28;20019;-54
2022/01/12 03:03:59;;;;;;;4.32;2.88;;;;;;;;;;5129668;27;20435;-55
2022/01/12 03:06:29;;;;;;;19.92;3.67;;;;;;;;;;5129929;27;20050;-55
2022/01/12 03:08:54;;;;;;;3.58;2.13;;;;;;;;;;5130626;27;20118;-54
2022/01/12 03:11:21;;;;;;;8.25;4.32;;;;;;;;;;5129762;27;20102;-55
2022/01/12 03:13:46;;;;;;;10.25;3.03;;;;;;;;;;5130409;27;20046;-51
2022/01/12 03:16:17;;;;;;;9.05;3.45;;;;;;;;;;5130407;27;20437;-53
2022/01/12 03:18:43;;;;;;;9.40;3.97;;;;;;;;;;5130310;27;20026;-53
2022/01/12 03:21:08;;;;;;;16.55;5.43;;;;;;;;;;5128799;27;20089;-55
2022/01/12 03:23:34;;;;;;;10.40;4.55;;;;;;;;;;5129980;27;20051;-53
2022/01/12 03:25:59;;;;;;;10.63;4.85;;;;;;;;;;5129448;27;20039;-55
2022/01/12 03:28:25;;;;;;;6.25;4.97;;;;;;;;;;5129375;27;20400;-54
2022/01/12 03:31:18;;;;;;;17.33;4.15;;;;;;;;;;5129142;27;20028;-53
2022/01/12 03:38:58;;;;;;;4.55;2.65;;;;;;;;;;5097138;27;20031;-56
2022/01/12 03:41:24;;;;;;;7.95;4.10;;;;;;;;;;5127635;27;20064;-54
2022/01/12 03:43:50;;;;;;;14.32;5.47;;;;;;;;;;5128155;27;20488;-56
2022/01/12 03:46:17;;;;;;;4.07;2.72;;;;;;;;;;5128620;27;20016;-54
2022/01/12 03:48:42;;;;;;;7.75;2.78;;;;;;;;;;5127886;27;20051;-55
2022/01/12 03:51:07;;;;;;;6.88;3.03;;;;;;;;;;5128941;27;20443;-54
2022/01/12 03:53:33;;;;;;;4.25;2.65;;;;;;;;;;5128409;27;20643;-53
2022/01/12 03:55:58;;;;;;;8.63;3.38;;;;;;;;;;5129057;27;20071;-54
2022/01/12 03:58:23;;;;;;;9.23;4.78;;;;;;;;;;5128267;27;20067;-54
2022/01/12 04:00:49;;;;;;;12.35;4.40;;;;;;;;;;5128271;27;20017;-54
2022/01/12 04:03:15;;;;;;;5.47;4.00;;;;;;;;;;5128153;27;20054;-56
2022/01/12 04:08:19;;;;;;;12.75;4.25;;;;;;;;;;5128120;27;20019;-55
2022/01/12 04:10:49;;;;;;;9.15;3.47;;;;;;;;;;5127647;27;20030;-54
2022/01/12 04:13:15;;;;;;;5.60;4.30;;;;;;;;;;5127638;27;20046;-56
2022/01/12 04:15:44;;;;;;;18.38;4.55;;;;;;;;;;5127894;27;20085;-55
2022/01/12 04:18:10;;;;;;;10.40;5.70;;;;;;;;;;5124349;27;20019;-56
2022/01/12 04:20:38;;;;;;;7.82;4.15;;;;;;;;;;5128120;27;20109;-54
2022/01/12 04:23:19;;;;;;;11.90;5.18;;;;;;;;;;5109092;27;20141;-54
2022/01/12 04:25:44;;;;;;;12.97;3.93;;;;;;;;;;5126668;27;20015;-53
2022/01/12 04:28:09;;;;;;;4.97;3.60;;;;;;;;;;5128193;27;20034;-53
2022/01/12 04:30:35;;;;;;;13.70;2.80;;;;;;;;;;5128871;27;20142;-55
2022/01/12 04:33:00;;;;;;;20.17;5.22;;;;;;;;;;5127880;27;20492;-54
2022/01/12 04:35:30;;;;;;;6.10;3.72;;;;;;;;;;5127837;27;20090;-52
2022/01/12 04:37:56;;;;;;;12.35;4.00;;;;;;;;;;5127428;27;20474;-54
2022/01/12 04:40:21;;;;;;;24.58;6.57;;;;;;;;;;5127942;27;20024;-54
2022/01/12 04:42:47;;;;;;;6.13;3.85;;;;;;;;;;5126280;27;20038;-52
2022/01/12 04:45:19;;;;;;;6.88;3.22;;;;;;;;;;5128363;27;20035;-54
2022/01/12 04:50:13;;;;;;;8.80;2.17;;;;;;;;;;5127010;27;20070;-50
2022/01/12 04:52:38;;;;;;;8.73;4.30;;;;;;;;;;5126935;27;20051;-53
2022/01/12 04:55:04;;;;;;;6.93;3.20;;;;;;;;;;5127299;27;20095;-51
2022/01/12 04:57:29;;;;;;;9.07;3.88;;;;;;;;;;5107279;27;20019;-55
2022/01/12 05:00:13;;;;;;;5.82;3.17;;;;;;;;;;5126546;27;20031;-54
2022/01/12 05:08:16;;;;;;;9.38;3.70;;;;;;;;;;5125955;27;20501;-51
2022/01/12 05:13:26;;;;;;;7.55;2.88;;;;;;;;;;5125580;27;20068;-54
2022/01/12 05:15:52;;;;;;;19.23;4.05;;;;;;;;;;5126372;27;20076;-54
2022/01/12 05:18:18;;;;;;;8.98;3.58;;;;;;;;;;5125169;27;20015;-53
2022/01/12 05:20:44;;;;;;;5.80;3.47;;;;;;;;;;5126735;27;20136;-53
2022/01/12 05:23:10;;;;;;;10.15;3.50;;;;;;;;;;5127090;27;20015;-54
2022/01/12 05:25:35;;;;;;;6.43;4.15;;;;;;;;;;5105005;27;20565;-55
2022/01/12 05:28:00;;;;;;;11.45;3.28;;;;;;;;;;5127532;27;20019;-55
2022/01/12 05:30:26;;;;;;;9.70;3.90;;;;;;;;;;5126733;27;20355;-54
2022/01/12 05:32:51;;;;;;;6.38;3.67;;;;;;;;;;5124552;27;20015;-51
2022/01/12 05:35:18;;;;;;;11.10;3.03;;;;;;;;;;5108877;27;20023;-53
2022/01/12 05:37:46;;;;;;;6.03;3.35;;;;;;;;;;5127110;27;20019;-51
2022/01/12 05:40:16;;;;;;;5.90;4.10;;;;;;;;;;5125173;27;20026;-52
2022/01/12 05:42:43;;;;;;;11.70;3.95;;;;;;;;;;5123139;27;20015;-53
2022/01/12 05:45:09;;;;;;;7.53;4.15;;;;;;;;;;5126499;27;20031;-52
2022/01/12 05:50:03;;;;;;;34.00;28.35;;;;;;;;;;5126058;27;20035;-53
2022/01/12 05:52:28;;;;;;;15.55;4.20;;;;;;;;;;5126299;27;20022;-54
2022/01/12 05:54:54;;;;;;;10.23;3.33;;;;;;;;;;5126945;27;20386;-54
2022/01/12 05:57:19;;;;;;;12.20;8.32;;;;;;;;;;5126278;27;20047;-55
2022/01/12 05:59:44;;;;;;;8.50;3.60;;;;;;;;;;5126659;27;20015;-53
2022/01/12 06:02:09;;;;;;;10.50;3.05;;;;;;;;;;5126736;27;20019;-55
2022/01/12 06:04:35;;;;;;;6.25;4.65;;;;;;;;;;5126975;27;20398;-54
2022/01/12 06:07:02;;;;;;;15.45;4.10;;;;;;;;;;5125876;28;20557;-55
2022/01/12 06:09:27;;;;;;;6.65;3.40;;;;;;;;;;5125985;28;20019;-55
2022/01/12 06:11:52;;;;;;;5.43;3.38;;;;;;;;;;5126458;28;20065;-52
2022/01/12 06:14:20;;;;;;;12.20;3.22;;;;;;;;;;5124684;28;20024;-53
2022/01/12 06:16:45;;;;;;;15.75;4.53;;;;;;;;;;5124826;28;20019;-51
2022/01/12 06:19:11;;;;;;;13.77;4.93;;;;;;;;;;5126469;28;20135;-53
2022/01/12 06:21:36;;;;;;;8.80;4.53;;;;;;;;;;5124919;28;20051;-55
2022/01/12 06:24:01;;;;;;;10.90;5.25;;;;;;;;;;5122310;28;20394;-55
2022/01/12 06:26:27;;;;;;;12.90;6.93;;;;;;;;;;5126182;28;20070;-52
2022/01/12 06:29:15;;;;;;;20.92;10.85;;;;;;;;;;5126035;28;20029;-53
2022/01/12 06:31:40;;;;;;;15.23;9.55;;;;;;;;;;5125243;28;20108;-51
2022/01/12 06:34:06;;;;;;;13.88;9.57;;;;;;;;;;5126457;28;20506;-52
2022/01/12 06:36:31;;;;;;;9.02;7.18;;;;;;;;;;5128016;27;20021;-52
2022/01/12 06:38:56;;;;;;;11.27;7.60;;;;;;;;;;5130718;27;20027;-51
2022/01/12 06:41:22;;;;;;;9.55;3.67;;;;;;;;;;5130743;27;20031;-53
2022/01/12 06:43:47;;;;;;;6.35;3.95;;;;;;;;;;5130689;27;20062;-51
2022/01/12 06:46:15;;;;;;;9.18;4.90;;;;;;;;;;5130021;27;20038;-53
2022/01/12 06:48:40;;;;;;;9.63;4.13;;;;;;;;;;5129010;27;20023;-51
2022/01/12 06:51:06;;;;;;;30.17;10.93;;;;;;;;;;5127859;27;20457;-50
2022/01/12 06:53:32;;;;;;;19.13;11.48;;;;;;;;;;5128160;27;20090;-51
2022/01/12 06:55:58;;;;;;;24.15;8.30;;;;;;;;;;5127976;27;20618;-52
2022/01/12 06:58:24;;;;;;;14.65;7.97;;;;;;;;;;5127355;27;20020;-48
2022/01/12 07:00:49;;;;;;;12.00;6.50;;;;;;;;;;5128370;27;20097;-52
2022/01/12 07:03:15;;;;;;;14.82;5.53;;;;;;;;;;5129266;27;20024;-53
2022/01/12 07:05:40;;;;;;;10.48;6.60;;;;;;;;;;5129644;27;20106;-48
2022/01/12 07:08:05;;;;;;;22.88;7.03;;;;;;;;;;5129249;27;20064;-51
2022/01/12 07:10:31;;;;;;;16.08;5.07;;;;;;;;;;5129313;27;20027;-51
2022/01/12 07:12:56;;;;;;;8.88;7.05;;;;;;;;;;5129248;27;20011;-53
2022/01/12 07:15:22;;;;;;;15.57;13.23;;;;;;;;;;5129401;27;20673;-54
2022/01/12 07:17:48;;;;;;;29.77;10.02;;;;;;;;;;5111005;27;20023;-51
2022/01/12 07:20:14;;;;;;;15.27;7.28;;;;;;;;;;5127249;27;20047;-53
2022/01/12 07:22:39;;;;;;;9.02;6.43;;;;;;;;;;5130489;27;20031;-50
2022/01/12 07:25:05;;;;;;;13.98;6.80;;;;;;;;;;5128965;27;20046;-49
2022/01/12 07:27:30;;;;;;;18.00;8.02;;;;;;;;;;5129869;27;20665;-54
2022/01/12 07:29:55;;;;;;;13.75;8.60;;;;;;;;;;5127760;27;20027;-53
2022/01/12 07:32:21;;;;;;;14.35;7.07;;;;;;;;;;5128598;27;20019;-52
2022/01/12 07:34:46;;;;;;;22.25;9.05;;;;;;;;;;5129032;27;20019;-53
2022/01/12 07:37:12;;;;;;;16.63;8.40;;;;;;;;;;5128065;27;20530;-53
2022/01/12 07:39:37;;;;;;;11.13;7.55;;;;;;;;;;5129516;27;20076;-52
2022/01/12 07:42:03;;;;;;;43.05;11.80;;;;;;;;;;5125247;27;20728;-49
2022/01/12 07:44:29;;;;;;;22.25;12.73;;;;;;;;;;5126736;27;20670;-54
2022/01/12 07:46:55;;;;;;;17.42;8.70;;;;;;;;;;5123640;27;20140;-52
2022/01/12 07:49:20;;;;;;;18.02;10.80;;;;;;;;;;5126178;27;20118;-52
2022/01/12 07:51:45;;;;;;;32.78;12.00;;;;;;;;;;5125894;27;20466;-50
2022/01/12 07:54:11;;;;;;;28.35;12.15;;;;;;;;;;5126651;27;20079;-52
2022/01/12 07:56:36;;;;;;;18.58;11.80;;;;;;;;;;5125505;27;20556;-54
2022/01/12 07:59:01;;;;;;;18.38;11.65;;;;;;;;;;5120795;27;20087;-53
2022/01/12 08:01:26;;;;;;;18.40;10.30;;;;;;;;;;5126166;27;20106;-51
2022/01/12 08:03:52;;;;;;;22.05;12.70;;;;;;;;;;5125588;27;20027;-53
2022/01/12 08:06:17;;;;;;;37.35;12.27;;;;;;;;;;5126005;27;20034;-50
2022/01/12 08:08:43;;;;;;;34.38;13.73;;;;;;;;;;5125635;27;20046;-53
2022/01/12 08:11:08;;;;;;;22.52;13.30;;;;;;;;;;5125630;27;20026;-52
2022/01/12 08:13:33;;;;;;;48.63;17.50;;;;;;;;;;5124465;27;20019;-52
2022/01/12 08:15:59;;;;;;;19.98;13.43;;;;;;;;;;5125445;27;20138;-51
2022/01/12 08:18:24;;;;;;;14.82;12.75;;;;;;;;;;5124769;27;20130;-53
2022/01/12 08:20:50;;;;;;;21.30;15.13;;;;;;;;;;5124480;27;20399;-55
2022/01/12 08:23:15;;;;;;;24.88;14.43;;;;;;;;;;5123431;27;20019;-53
2022/01/12 08:25:40;;;;;;;29.83;14.90;;;;;;;;;;5125144;27;20486;-52
2022/01/12 08:28:06;;;;;;;28.73;15.70;;;;;;;;;;5125294;27;20103;-53
2022/01/12 08:30:33;;;;;;;22.60;15.13;;;;;;;;;;5125246;27;20847;-53
2022/01/12 08:32:59;;;;;;;32.70;15.65;;;;;;;;;;5125505;27;20031;-50
2022/01/12 08:35:24;;;;;;;29.95;14.32;;;;;;;;;;5123110;27;20112;-49
2022/01/12 08:37:50;;;;;;;51.53;21.52;;;;;;;;;;5124789;27;20494;-51
2022/01/12 08:40:16;;;;;;;26.33;21.50;;;;;;;;;;5123526;27;20023;-54
2022/01/12 08:42:42;;;;;;;32.55;20.80;;;;;;;;;;5124599;27;20023;-53
2022/01/12 08:45:07;;;;;;;31.58;21.60;;;;;;;;;;5124189;27;20040;-53
2022/01/12 08:47:33;;;;;;;26.45;18.50;;;;;;;;;;5124446;27;20407;-51
2022/01/12 08:49:58;;;;;;;81.90;65.50;;;;;;;;;;5125099;27;20103;-54
2022/01/12 08:52:24;;;;;;;74.63;50.47;;;;;;;;;;5120915;27;20022;-50
2022/01/12 08:54:50;;;;;;;59.13;37.40;;;;;;;;;;5124875;27;20759;-51
2022/01/12 08:57:15;;;;;;;47.65;33.35;;;;;;;;;;5124422;27;20019;-52
2022/01/12 08:59:40;;;;;;;42.88;33.28;;;;;;;;;;5124206;27;20497;-53
2022/01/12 09:02:07;;;;;;;52.53;33.83;;;;;;;;;;5125669;27;20035;-54
2022/01/12 09:04:32;;;;;;;50.03;29.90;;;;;;;;;;5125620;27;20502;-50
2022/01/12 09:06:58;;;;;;;36.83;28.77;;;;;;;;;;5123870;27;20023;-52
2022/01/12 09:09:24;;;;;;;33.95;27.38;;;;;;;;;;5127503;27;20073;-54
2022/01/12 09:11:50;;;;;;;31.73;25.42;;;;;;;;;;5126152;27;20025;-49
2022/01/12 09:14:15;;;;;;;28.58;22.27;;;;;;;;;;5127456;27;20498;-52
2022/01/12 09:16:41;;;;;;;31.00;25.73;;;;;;;;;;5127028;27;20037;-51
2022/01/12 09:19:06;;;;;;;32.65;22.45;;;;;;;;;;5125946;27;20019;-50
2022/01/12 09:21:33;;;;;;;43.72;28.65;;;;;;;;;;5124979;27;20061;-49
2022/01/12 09:23:58;;;;;;;35.65;29.10;;;;;;;;;;5126343;27;20015;-51
2022/01/12 09:26:23;;;;;;;66.03;54.05;;;;;;;;;;5126929;27;20034;-52
2022/01/12 09:28:49;;;;;;;132.38;98.00;;;;;;;;;;5126392;27;20023;-49
2022/01/12 09:31:14;;;;;;;95.57;56.28;;;;;;;;;;5126436;27;20022;-52
2022/01/12 09:33:40;;;;;;;44.30;37.97;;;;;;;;;;5126894;27;20023;-53
2022/01/12 09:36:06;;;;;;;47.97;30.42;;;;;;;;;;5127107;27;20031;-48
2022/01/12 09:38:33;;;;;;;33.00;26.48;;;;;;;;;;5124484;27;20054;-49
2022/01/12 09:40:58;;;;;;;32.03;25.38;;;;;;;;;;5125156;27;20026;-50
2022/01/12 09:43:25;;;;;;;33.25;25.77;;;;;;;;;;5126480;27;20019;-52
2022/01/12 09:45:54;;;;;;;37.10;27.15;;;;;;;;;;5126596;27;20225;-49
2022/01/12 09:48:21;;;;;;;29.58;23.38;;;;;;;;;;5125756;27;20015;-49
2022/01/12 09:50:47;;;;;;;28.65;23.10;;;;;;;;;;5126285;27;20015;-51
2022/01/12 09:53:12;;;;;;;28.75;21.63;;;;;;;;;;5126820;27;20766;-52
2022/01/12 09:55:37;;;;;;;38.72;24.85;;;;;;;;;;5126470;27;20011;-49
2022/01/12 09:58:03;;;;;;;32.20;23.52;;;;;;;;;;5124123;27;20046;-53
2022/01/12 10:00:28;;;;;;;29.83;21.30;;;;;;;;;;5126615;27;20092;-48
2022/01/12 10:02:55;;;;;;;42.33;24.80;;;;;;;;;;5127076;27;20436;-53
2022/01/12 10:05:27;;;;;;;27.88;19.42;;;;;;;;;;5126565;28;20027;-52
2022/01/12 10:07:53;;;;;;;27.05;19.52;;;;;;;;;;5126480;28;20023;-49
2022/01/12 10:10:18;;;;;;;29.15;25.08;;;;;;;;;;5126227;27;20782;-50
2022/01/12 10:12:56;;;;;;;34.58;22.00;;;;;;;;;;5131329;27;20019;-51
2022/01/12 10:15:27;;;;;;;29.77;16.73;;;;;;;;;;5128941;27;20015;-48
2022/01/12 10:17:53;;;;;;;25.98;17.13;;;;;;;;;;5131044;27;20046;-51
2022/01/12 10:20:19;;;;;;;29.15;15.10;;;;;;;;;;5130404;27;20042;-50
2022/01/12 10:22:56;;;;;;;15.63;9.80;;;;;;;;;;5131522;27;20447;-52
2022/01/12 10:25:22;;;;;;;15.45;8.30;;;;;;;;;;5129832;27;20023;-51
2022/01/12 10:27:48;;;;;;;41.28;23.33;;;;;;;;;;5130846;27;20034;-52
2022/01/12 10:30:21;;;;;;;17.05;11.55;;;;;;;;;;5131090;27;20034;-51
2022/01/12 10:32:46;;;;;;;7.85;6.57;;;;;;;;;;5130303;27;20032;-48
2022/01/12 10:35:12;;;;;;;9.05;4.93;;;;;;;;;;5130478;27;20052;-52
2022/01/12 10:37:37;;;;;;;13.10;5.15;;;;;;;;;;5130845;27;20072;-47
2022/01/12 10:40:03;;;;;;;8.43;3.80;;;;;;;;;;5130603;27;20031;-52
2022/01/12 10:42:28;;;;;;;5.32;2.97;;;;;;;;;;5130023;27;20378;-48
2022/01/12 10:44:55;;;;;;;17.33;7.78;;;;;;;;;;5129844;27;20027;-50
2022/01/12 10:47:22;;;;;;;8.90;5.20;;;;;;;;;;5130541;27;20031;-51
2022/01/12 10:49:53;;;;;;;8.00;4.93;;;;;;;;;;5130653;27;20042;-52
2022/01/12 10:52:19;;;;;;;13.38;3.53;;;;;;;;;;5130043;27;20015;-53
2022/01/12 10:54:49;;;;;;;13.73;3.85;;;;;;;;;;5110851;27;20023;-52
2022/01/12 10:57:24;;;;;;;11.82;4.95;;;;;;;;;;5129845;27;20015;-50
2022/01/12 11:00:10;;;;;;;7.38;2.92;;;;;;;;;;5127297;27;20062;-50
2022/01/12 11:02:39;;;;;;;9.65;3.10;;;;;;;;;;5129432;27;20501;-47
2022/01/12 11:05:06;;;;;;;11.60;3.35;;;;;;;;;;5127433;27;20387;-47
2022/01/12 11:07:31;;;;;;;9.63;2.80;;;;;;;;;;5129229;27;20021;-48
2022/01/12 11:09:58;;;;;;;4.15;2.20;;;;;;;;;;5128150;27;20331;-50
2022/01/12 11:12:24;;;;;;;16.38;4.63;;;;;;;;;;5128181;27;20019;-46
2022/01/12 11:14:49;;;;;;;6.57;4.45;;;;;;;;;;5127840;27;20027;-49
2022/01/12 11:17:15;;;;;;;4.70;2.00;;;;;;;;;;5129658;27;20027;-48
2022/01/12 11:19:44;;;;;;;8.35;3.35;;;;;;;;;;5129783;27;20418;-49
2022/01/12 11:22:16;;;;;;;5.68;2.83;;;;;;;;;;5127398;27;20039;-50
2022/01/12 11:24:41;;;;;;;5.53;2.47;;;;;;;;;;5129230;27;20397;-52
2022/01/12 11:27:06;;;;;;;6.28;3.40;;;;;;;;;;5127760;27;20019;-49
2022/01/12 11:29:34;;;;;;;9.75;3.50;;;;;;;;;;5128338;27;20034;-50
2022/01/12 11:32:06;;;;;;;5.50;3.63;;;;;;;;;;5128756;27;20103;-48
2022/01/12 11:34:32;;;;;;;4.63;3.22;;;;;;;;;;5126945;27;20020;-51
2022/01/12 11:36:57;;;;;;;9.90;3.70;;;;;;;;;;5127632;27;20490;-50
2022/01/12 11:39:23;;;;;;;6.10;3.83;;;;;;;;;;5127999;27;20033;-50
2022/01/12 11:41:48;;;;;;;6.28;2.45;;;;;;;;;;5128392;27;20043;-48
2022/01/12 11:44:20;;;;;;;11.15;4.35;;;;;;;;;;5128474;27;20015;-49
2022/01/12 11:46:49;;;;;;;5.82;3.42;;;;;;;;;;5128037;27;20500;-51
2022/01/12 11:49:29;;;;;;;6.05;3.05;;;;;;;;;;5127110;27;20050;-47
2022/01/12 11:51:54;;;;;;;3.30;2.13;;;;;;;;;;5128465;27;20011;-47
2022/01/12 11:54:21;;;;;;;5.18;3.20;;;;;;;;;;5127621;27;20457;-45
2022/01/12 11:57:06;;;;;;;12.05;4.93;;;;;;;;;;5128485;27;20165;-48
2022/01/12 11:59:49;;;;;;;14.05;3.38;;;;;;;;;;5127962;27;20011;-48
2022/01/12 12:02:17;;;;;;;3.60;2.70;;;;;;;;;;5127014;27;20027;-50
2022/01/12 12:04:56;;;;;;;8.30;3.70;;;;;;;;;;5128581;27;20056;-51
2022/01/12 12:07:23;;;;;;;13.90;4.00;;;;;;;;;;5128502;27;20474;-48
2022/01/12 12:09:52;;;;;;;4.88;2.35;;;;;;;;;;5127759;27;20036;-51
2022/01/12 12:12:19;;;;;;;3.42;2.20;;;;;;;;;;5127964;27;20138;-52
2022/01/12 12:14:49;;;;;;;14.90;2.20;;;;;;;;;;5127488;27;20007;-49
2022/01/12 12:17:15;;;;;;;4.30;2.10;;;;;;;;;;5128446;27;20015;-52
2022/01/12 12:19:40;;;;;;;9.85;3.80;;;;;;;;;;5127787;27;20026;-53
2022/01/12 12:22:10;;;;;;;7.78;3.65;;;;;;;;;;5127410;27;20047;-53
2022/01/12 12:24:35;;;;;;;6.32;2.58;;;;;;;;;;5126772;27;20023;-51
2022/01/12 12:27:01;;;;;;;6.10;2.25;;;;;;;;;;5127431;27;20624;-53
2022/01/12 12:29:27;;;;;;;21.63;2.60;;;;;;;;;;5127643;27;20027;-51
2022/01/12 12:31:54;;;;;;;8.40;4.35;;;;;;;;;;5127680;27;20011;-52
2022/01/12 12:34:26;;;;;;;5.40;3.40;;;;;;;;;;5127564;27;20015;-51
2022/01/12 12:37:11;;;;;;;6.90;1.80;;;;;;;;;;5127164;27;20026;-50
2022/01/12 12:39:37;;;;;;;11.40;2.33;;;;;;;;;;5127429;27;20023;-53
2022/01/12 12:42:04;;;;;;;9.68;3.20;;;;;;;;;;5127713;27;20019;-52
2022/01/12 12:44:30;;;;;;;5.55;4.53;;;;;;;;;;5127415;27;20023;-53
2022/01/12 12:47:13;;;;;;;14.95;3.08;;;;;;;;;;5128296;27;20030;-50
2022/01/12 12:49:52;;;;;;;8.38;5.32;;;;;;;;;;5126756;27;20058;-51
2022/01/12 12:52:21;;;;;;;5.53;3.00;;;;;;;;;;5126545;27;20015;-52
2022/01/12 12:54:47;;;;;;;10.80;4.63;;;;;;;;;;5127046;27;20102;-50
2022/01/12 12:57:12;;;;;;;6.53;4.35;;;;;;;;;;5125658;27;20538;-52
2022/01/12 12:59:37;;;;;;;7.43;3.05;;;;;;;;;;5127432;27;20525;-53
2022/01/12 13:02:10;;;;;;;19.95;3.83;;;;;;;;;;5127700;27;20104;-52
2022/01/12 13:04:36;;;;;;;17.70;4.50;;;;;;;;;;5125709;27;20053;-51
2022/01/12 13:07:10;;;;;;;18.27;10.15;;;;;;;;;;5126048;27;20456;-49
2022/01/12 13:09:35;;;;;;;10.68;5.15;;;;;;;;;;5126259;27;20019;-51
2022/01/12 13:12:03;;;;;;;11.45;6.03;;;;;;;;;;5126956;27;20015;-49
2022/01/12 13:14:29;;;;;;;20.92;6.03;;;;;;;;;;5127044;27;20072;-49
2022/01/12 13:16:55;;;;;;;10.00;5.78;;;;;;;;;;5127155;27;20023;-51
2022/01/12 13:21:07;;;;;;;14.93;6.95;;;;;;;;;;5127343;27;20030;-57
2022/01/12 13:22:30;;;;;;;3.50;2.50;;;;;;;;;;5126678;27;20083;-57
2022/01/12 13:24:57;;;;;;;3.17;2.17;;;;;;;;;;5125906;27;20063;-57
2022/01/12 13:27:23;;;;;;;10.25;2.38;;;;;;;;;;5125649;27;20045;-56
2022/01/12 13:29:49;;;;;;;8.65;2.45;;;;;;;;;;5126454;27;20072;-56
2022/01/12 13:32:15;;;;;;;2.65;1.48;;;;;;;;;;5125699;27;20400;-53
2022/01/12 13:34:43;;;;;;;12.38;2.63;;;;;;;;;;5126751;27;20090;-56
2022/01/12 13:37:13;;;;;;;9.85;5.13;;;;;;;;;;5126492;27;20027;-56
2022/01/12 13:39:38;;;;;;;4.18;2.75;;;;;;;;;;5125241;27;20023;-56
2022/01/12 13:42:04;;;;;;;14.65;2.95;;;;;;;;;;5126371;27;20026;-55
2022/01/12 13:44:29;;;;;;;7.95;3.78;;;;;;;;;;5126871;27;20029;-55
2022/01/12 13:47:11;;;;;;;10.18;2.88;;;;;;;;;;5126534;27;20023;-55
2022/01/12 13:49:37;;;;;;;4.68;1.88;;;;;;;;;;5127028;27;20066;-57
2022/01/12 13:52:04;;;;;;;10.82;5.05;;;;;;;;;;5126715;27;20043;-56
2022/01/12 13:54:31;;;;;;;4.68;2.40;;;;;;;;;;5126784;27;20019;-54
2022/01/12 13:56:57;;;;;;;10.43;3.97;;;;;;;;;;5126705;27;20074;-56
2022/01/12 13:59:25;;;;;;;3.63;2.03;;;;;;;;;;5126000;27;20018;-50
2022/01/12 14:01:51;;;;;;;6.72;3.00;;;;;;;;;;5126411;27;20046;-48
2022/01/12 14:04:36;;;;;;;8.88;4.00;;;;;;;;;;5126490;27;20474;-50
2022/01/12 14:07:04;;;;;;;4.65;2.38;;;;;;;;;;5123631;28;20073;-48
2022/01/12 14:09:34;;;;;;;11.35;2.50;;;;;;;;;;5126292;28;20075;-48
2022/01/12 14:12:13;;;;;;;8.70;2.50;;;;;;;;;;5126954;28;20436;-49
2022/01/12 14:14:49;;;;;;;9.38;5.30;;;;;;;;;;5124765;28;20015;-49
2022/01/12 14:17:43;;;;;;;4.05;2.10;;;;;;;;;;5126482;28;20019;-50
2022/01/12 14:20:12;;;;;;;6.78;2.85;;;;;;;;;;5110287;28;20123;-50
2022/01/12 14:22:47;;;;;;;3.35;1.83;;;;;;;;;;5126928;28;20443;-49
2022/01/12 14:25:14;;;;;;;5.80;1.90;;;;;;;;;;5124603;28;20106;-51
2022/01/12 14:27:40;;;;;;;16.35;2.80;;;;;;;;;;5126957;28;20061;-47
2022/01/12 14:30:07;;;;;;;3.78;2.15;;;;;;;;;;5124058;28;20425;-50
2022/01/12 14:32:36;;;;;;;6.35;3.60;;;;;;;;;;5125827;28;20007;-48
2022/01/12 14:35:07;;;;;;;6.47;3.55;;;;;;;;;;5126181;28;20046;-49
2022/01/12 14:37:32;;;;;;;8.63;3.53;;;;;;;;;;5126012;28;20029;-49
2022/01/12 14:39:57;;;;;;;5.80;3.30;;;;;;;;;;5125739;28;20019;-48
2022/01/12 14:42:23;;;;;;;3.13;1.83;;;;;;;;;;5126191;28;20209;-49
2022/01/12 14:44:48;;;;;;;3.42;2.20;;;;;;;;;;5125956;28;20030;-50
2022/01/12 14:47:13;;;;;;;7.38;3.92;;;;;;;;;;5126974;28;20121;-48
2022/01/12 14:49:39;;;;;;;9.60;2.38;;;;;;;;;;5126216;27;20019;-53
2022/01/12 14:52:04;;;;;;;3.58;2.20;;;;;;;;;;5125945;27;20152;-49
2022/01/12 14:54:30;;;;;;;7.82;3.28;;;;;;;;;;5125728;28;20008;-49
2022/01/12 14:56:55;;;;;;;13.88;3.10;;;;;;;;;;5125685;27;20030;-51
2022/01/12 14:59:20;;;;;;;6.80;3.83;;;;;;;;;;5129181;27;20031;-51
2022/01/12 15:01:46;;;;;;;14.27;8.98;;;;;;;;;;5130088;27;20027;-49
2022/01/12 15:04:11;;;;;;;9.10;8.20;;;;;;;;;;5129206;27;20054;-50
2022/01/12 15:06:37;;;;;;;11.07;8.32;;;;;;;;;;5129475;27;20533;-45
2022/01/12 15:09:02;;;;;;;9.40;6.13;;;;;;;;;;5129970;27;20645;-46
2022/01/12 15:11:27;;;;;;;5.93;3.80;;;;;;;;;;5129971;27;20015;-49
2022/01/12 15:13:59;;;;;;;13.48;5.18;;;;;;;;;;5129266;27;20042;-47
2022/01/12 15:16:24;;;;;;;13.07;6.95;;;;;;;;;;5129194;27;20035;-50
2022/01/12 15:18:50;;;;;;;19.17;9.10;;;;;;;;;;5129493;27;20076;-50
2022/01/12 15:21:17;;;;;;;23.13;9.73;;;;;;;;;;5127683;27;20499;-50
2022/01/12 15:23:42;;;;;;;14.65;12.15;;;;;;;;;;5129857;27;20046;-51
2022/01/12 15:26:08;;;;;;;20.10;10.95;;;;;;;;;;5129583;27;20428;-48
2022/01/12 15:28:33;;;;;;;10.77;8.73;;;;;;;;;;5128618;27;20049;-51
2022/01/12 15:30:58;;;;;;;17.40;10.23;;;;;;;;;;5128648;27;20051;-52
2022/01/12 15:33:24;;;;;;;18.45;7.95;;;;;;;;;;5128967;27;20367;-50
2022/01/12 15:35:49;;;;;;;16.95;7.35;;;;;;;;;;5128936;27;20375;-48
2022/01/12 15:38:15;;;;;;;11.60;7.60;;;;;;;;;;5129365;27;20068;-49
2022/01/12 15:40:41;;;;;;;21.88;6.57;;;;;;;;;;5128988;27;20474;-51
2022/01/12 15:43:06;;;;;;;19.95;7.80;;;;;;;;;;5128975;27;20027;-49
2022/01/12 15:45:32;;;;;;;16.73;7.93;;;;;;;;;;5129432;27;20484;-50